Time;durP1;ratioP1;P1;durP2;ratioP2;P2;SDS_P1;SDS_P2;PMS_P1;PMS_P2;Temp;Humidity;BMP_temperature;BMP_pressure;BME280_temperature;BME280_humidity;BME280_pressure;Samples;Min_cycle;Max_cycle;Signal;HPM_P1;HPM_P2
2022/01/12 00:00:18;;;;;;;46.03;18.88;;;;;;;4.05;94.16;103513.81;5075074;28;20021;-66
2022/01/12 00:02:43;;;;;;;41.03;17.63;;;;;;;4.18;93.92;103523.44;5093068;28;20134;-66
2022/01/12 00:05:09;;;;;;;40.30;17.70;;;;;;;3.93;94.55;103537.47;5093085;28;20107;-66
2022/01/12 00:07:34;;;;;;;41.72;17.92;;;;;;;4.03;94.98;103538.69;5092977;28;20031;-67
2022/01/12 00:09:59;;;;;;;43.13;18.20;;;;;;;4.06;94.74;103541.06;5073187;28;20020;-66
2022/01/12 00:12:26;;;;;;;38.28;17.27;;;;;;;4.08;94.54;103535.88;5091250;28;20027;-67
2022/01/12 00:14:52;;;;;;;42.78;18.08;;;;;;;4.07;94.26;103545.28;5091161;28;20073;-66
2022/01/12 00:17:17;;;;;;;43.47;18.00;;;;;;;4.07;94.31;103537.59;5072672;28;20028;-66
2022/01/12 00:19:42;;;;;;;42.17;18.40;;;;;;;4.06;94.20;103530.03;5090584;28;20054;-66
2022/01/12 00:22:08;;;;;;;40.35;17.77;;;;;;;4.07;94.71;103529.09;5090821;28;20035;-65
2022/01/12 00:25:03;;;;;;;40.10;18.25;;;;;;;4.17;94.67;103522.63;5094062;28;20034;-66
2022/01/12 00:33:10;;;;;;;42.88;17.40;;;;;;;4.01;95.19;103514.06;5095939;28;20035;-66
2022/01/12 00:35:37;;;;;;;41.25;17.83;;;;;;;4.05;95.02;103521.50;5094591;28;20016;-66
2022/01/12 00:38:03;;;;;;;45.65;19.10;;;;;;;4.05;95.46;103515.56;5096175;28;20105;-65
2022/01/12 00:40:28;;;;;;;43.05;18.08;;;;;;;4.16;94.28;103513.28;5096106;28;20071;-66
2022/01/12 00:42:54;;;;;;;42.65;17.50;;;;;;;4.09;94.91;103529.03;5096119;28;20032;-65
2022/01/12 00:45:20;;;;;;;41.40;18.60;;;;;;;4.01;94.93;103537.91;5096050;28;20023;-65
2022/01/12 00:47:46;;;;;;;38.75;17.98;;;;;;;4.00;94.87;103528.59;5096253;28;20058;-66
2022/01/12 00:50:11;;;;;;;41.78;16.90;;;;;;;4.06;94.66;103522.34;5096012;28;20497;-66
2022/01/12 00:52:37;;;;;;;44.58;18.52;;;;;;;4.04;95.00;103511.34;5077735;28;20016;-67
2022/01/12 00:55:04;;;;;;;42.92;18.17;;;;;;;4.11;95.15;103524.66;5077723;28;20077;-67
2022/01/12 00:57:30;;;;;;;41.58;17.75;;;;;;;4.09;95.13;103522.19;5077726;28;20046;-66
2022/01/12 00:59:55;;;;;;;43.42;17.63;;;;;;;3.97;95.26;103513.41;5095724;28;20060;-66
2022/01/12 01:02:21;;;;;;;37.70;16.70;;;;;;;4.07;95.12;103524.81;5096337;28;20032;-66
2022/01/12 01:04:46;;;;;;;38.30;16.63;;;;;;;4.10;95.06;103528.13;5095652;28;20024;-66
2022/01/12 01:07:11;;;;;;;39.25;17.10;;;;;;;4.10;95.37;103530.69;5077566;28;20027;-65
2022/01/12 01:09:42;;;;;;;40.55;17.58;;;;;;;4.06;95.00;103518.03;5096072;28;20020;-66
2022/01/12 01:12:08;;;;;;;39.47;17.10;;;;;;;4.04;95.07;103517.28;5077475;28;20089;-66
2022/01/12 01:14:45;;;;;;;38.85;16.48;;;;;;;4.03;94.63;103512.25;5095466;28;20103;-65
2022/01/12 01:25:31;;;;;;;40.38;17.58;;;;;;;3.91;96.16;103507.72;5095845;28;20038;-66
2022/01/12 01:27:56;;;;;;;37.05;17.20;;;;;;;3.90;95.73;103506.09;5077085;28;20031;-66
2022/01/12 01:30:22;;;;;;;41.67;18.13;;;;;;;3.83;96.26;103506.41;5077019;28;20020;-66
2022/01/12 01:32:48;;;;;;;40.75;17.90;;;;;;;3.92;95.92;103500.00;5076963;28;20028;-66
2022/01/12 01:35:14;;;;;;;40.03;17.58;;;;;;;3.83;96.36;103514.06;5093886;28;20103;-66
2022/01/12 01:37:41;;;;;;;45.80;17.50;;;;;;;3.98;96.39;103516.78;5094926;28;20509;-67
2022/01/12 01:40:11;;;;;;;45.28;17.88;;;;;;;3.98;96.26;103520.16;5094925;28;20103;-66
2022/01/12 01:43:10;;;;;;;40.38;17.40;;;;;;;4.05;95.84;103521.50;5076754;28;20028;-66
2022/01/12 01:53:50;;;;;;;45.25;17.60;;;;;;;4.01;95.08;103558.38;5095453;28;20043;-66
2022/01/12 01:56:18;;;;;;;46.47;17.75;;;;;;;4.07;95.23;103568.31;5094769;28;20425;-66
2022/01/12 01:58:44;;;;;;;35.38;16.23;;;;;;;4.06;95.31;103586.31;5076397;28;20506;-66
2022/01/12 02:01:10;;;;;;;43.08;18.17;;;;;;;4.17;95.07;103575.53;5076353;28;20123;-66
2022/01/12 02:03:35;;;;;;;38.28;17.00;;;;;;;4.17;95.18;103585.75;5076331;28;20119;-67
2022/01/12 02:06:00;;;;;;;42.45;18.45;;;;;;;4.14;95.38;103596.16;5094447;28;20077;-66
2022/01/12 02:08:27;;;;;;;40.13;17.60;;;;;;;4.17;95.63;103607.09;5094398;28;20031;-65
2022/01/12 02:10:57;;;;;;;43.92;17.42;;;;;;;4.25;94.94;103604.13;5094281;28;20103;-66
2022/01/12 02:13:23;;;;;;;43.47;18.17;;;;;;;4.22;94.87;103627.31;5095179;28;20032;-66
2022/01/12 02:15:50;;;;;;;38.67;17.70;;;;;;;4.17;95.32;103635.25;5094300;28;20031;-66
2022/01/12 02:19:09;;;;;;;35.08;16.67;;;;;;;4.21;95.29;103633.38;5094264;28;20098;-66
2022/01/12 02:40:38;;;;;;;37.83;17.95;;;;;;;4.25;94.28;103657.91;5094383;28;20036;-66
2022/01/12 02:51:30;;;;;;;45.30;19.35;;;;;;;4.35;94.77;103632.69;5094325;28;20545;-66
2022/01/12 02:53:55;;;;;;;41.55;18.02;;;;;;;4.32;94.58;103658.44;5093815;28;20023;-66
2022/01/12 02:56:24;;;;;;;40.75;18.38;;;;;;;4.31;94.60;103660.16;5093453;28;20506;-67
2022/01/12 02:58:51;;;;;;;41.65;19.13;;;;;;;4.32;94.99;103656.72;5093460;28;20026;-67
2022/01/12 03:04:02;;;;;;;41.53;18.17;;;;;;;4.43;94.88;103643.34;5094461;28;20035;-66
2022/01/12 03:06:34;;;;;;;42.88;18.55;;;;;;;4.39;95.19;103642.69;5075489;28;20020;-66
2022/01/12 03:09:00;;;;;;;48.05;19.27;;;;;;;4.36;94.68;103630.03;5093624;28;20028;-67
2022/01/12 03:11:27;;;;;;;47.28;19.58;;;;;;;4.38;94.64;103635.09;5093426;28;20048;-66
2022/01/12 03:13:53;;;;;;;46.85;19.73;;;;;;;4.33;94.30;103626.81;5093405;28;20386;-66
2022/01/12 03:16:22;;;;;;;44.28;19.88;;;;;;;4.33;94.94;103630.19;5093499;28;20023;-66
2022/01/12 03:18:51;;;;;;;50.85;20.20;;;;;;;4.26;94.83;103637.34;5075391;28;20394;-66
2022/01/12 03:21:19;;;;;;;51.50;20.92;;;;;;;4.26;95.55;103644.22;5093240;28;20471;-66
2022/01/12 03:23:45;;;;;;;50.33;19.55;;;;;;;4.28;95.29;103634.69;5093253;28;20074;-66
2022/01/12 03:26:11;;;;;;;53.90;20.27;;;;;;;4.23;95.50;103649.44;5093253;28;20032;-67
2022/01/12 03:28:38;;;;;;;51.72;20.88;;;;;;;4.34;95.44;103644.63;5093297;28;20036;-66
2022/01/12 03:36:23;;;;;;;58.08;21.63;;;;;;;4.36;94.99;103642.84;5093093;28;20024;-66
2022/01/12 03:38:47;;;;;;;50.28;20.10;;;;;;;4.39;95.00;103662.34;5092993;28;20394;-66
2022/01/12 03:41:12;;;;;;;56.97;20.38;;;;;;;4.36;95.41;103668.44;5074850;28;20016;-66
2022/01/12 03:43:37;;;;;;;56.53;21.40;;;;;;;4.36;95.38;103673.56;5093130;28;20024;-67
2022/01/12 03:46:03;;;;;;;61.95;21.40;;;;;;;4.44;95.58;103686.81;5093167;28;20031;-66
2022/01/12 03:48:29;;;;;;;53.92;20.25;;;;;;;4.45;95.50;103683.34;5074928;28;20073;-66
2022/01/12 03:50:56;;;;;;;55.63;21.15;;;;;;;4.42;94.91;103687.81;5093410;28;20058;-66
2022/01/12 03:53:21;;;;;;;58.30;21.35;;;;;;;4.36;95.42;103683.81;5092992;28;20473;-66
2022/01/12 03:55:47;;;;;;;58.03;22.30;;;;;;;4.45;95.71;103690.22;5092845;28;20048;-66
2022/01/12 03:58:12;;;;;;;60.60;22.08;;;;;;;4.42;94.80;103688.63;5095069;28;20074;-66
2022/01/12 04:00:38;;;;;;;59.80;21.63;;;;;;;4.45;95.02;103695.31;5078463;28;20016;-66
2022/01/12 04:03:08;;;;;;;59.88;21.25;;;;;;;4.45;94.65;103690.22;5096751;28;20099;-65
2022/01/12 04:08:19;;;;;;;58.20;21.40;;;;;;;4.39;95.39;103685.38;5096933;28;20032;-66
2022/01/12 04:10:49;;;;;;;61.22;23.05;;;;;;;4.43;95.99;103679.19;5096670;28;20412;-65
2022/01/12 04:13:15;;;;;;;62.88;21.52;;;;;;;4.51;95.67;103683.03;5096548;28;20020;-65
2022/01/12 04:15:46;;;;;;;64.60;22.10;;;;;;;4.53;95.21;103665.88;5096518;28;20066;-67
2022/01/12 04:18:11;;;;;;;65.68;22.25;;;;;;;4.56;95.51;103659.78;5096562;28;20028;-67
2022/01/12 04:20:46;;;;;;;56.83;21.17;;;;;;;4.52;95.16;103658.28;5096528;28;20475;-66
2022/01/12 04:23:18;;;;;;;56.10;21.27;;;;;;;4.42;95.56;103667.31;5097035;28;20020;-66
2022/01/12 04:25:53;;;;;;;63.40;22.33;;;;;;;4.54;95.50;103674.38;5096468;28;20467;-67
2022/01/12 04:28:20;;;;;;;59.78;21.95;;;;;;;4.46;95.15;103677.34;5096908;28;20266;-67
2022/01/12 04:30:46;;;;;;;62.22;22.70;;;;;;;4.49;95.39;103668.69;5096334;28;20438;-66
2022/01/12 04:33:12;;;;;;;64.13;22.58;;;;;;;4.46;95.34;103674.78;5096201;28;20082;-66
2022/01/12 04:35:46;;;;;;;58.05;22.17;;;;;;;4.37;95.80;103669.25;5096154;28;20031;-66
2022/01/12 04:38:11;;;;;;;58.53;21.15;;;;;;;4.42;94.69;103683.50;5096118;28;20529;-67
2022/01/12 04:40:36;;;;;;;60.00;21.98;;;;;;;4.39;94.98;103665.72;5095936;28;20020;-66
2022/01/12 04:43:02;;;;;;;65.13;23.13;;;;;;;4.30;95.27;103668.75;5095988;28;20043;-66
2022/01/12 04:45:40;;;;;;;67.82;24.00;;;;;;;4.30;95.25;103659.34;5095908;28;20024;-66
2022/01/12 04:50:42;;;;;;;65.00;23.10;;;;;;;4.29;94.99;103665.38;5096199;28;20020;-65
2022/01/12 04:53:08;;;;;;;65.55;22.08;;;;;;;4.28;95.44;103663.69;5095797;28;20051;-66
2022/01/12 04:55:34;;;;;;;64.75;22.17;;;;;;;4.31;95.22;103670.41;5095595;28;20502;-66
2022/01/12 04:57:59;;;;;;;68.75;22.55;;;;;;;4.25;95.41;103676.63;5095745;28;20032;-66
2022/01/12 05:00:26;;;;;;;62.72;21.92;;;;;;;4.26;95.46;103668.06;5095590;28;20420;-66
2022/01/12 05:08:36;;;;;;;110.63;22.05;;;;;;;4.22;95.56;103684.47;5095163;28;20521;-66
2022/01/12 05:13:48;;;;;;;102.68;22.75;;;;;;;4.28;95.90;103696.97;5096267;28;20059;-66
2022/01/12 05:16:14;;;;;;;77.82;23.45;;;;;;;4.30;95.42;103700.28;5077216;28;20058;-66
2022/01/12 05:18:41;;;;;;;98.65;23.35;;;;;;;4.20;96.01;103693.13;5077616;28;20061;-66
2022/01/12 05:21:07;;;;;;;194.85;25.02;;;;;;;4.19;95.56;103699.97;5095420;28;20024;-66
2022/01/12 05:23:33;;;;;;;80.38;22.48;;;;;;;4.26;95.92;103706.47;5095471;28;20028;-66
2022/01/12 05:25:59;;;;;;;86.82;22.58;;;;;;;4.34;95.72;103713.75;5095459;28;20382;-66
2022/01/12 05:28:25;;;;;;;112.60;23.25;;;;;;;4.38;95.20;103717.03;5095343;28;20043;-66
2022/01/12 05:30:51;;;;;;;120.68;22.55;;;;;;;4.34;95.59;103718.88;5095629;28;20028;-66
2022/01/12 05:33:18;;;;;;;85.45;22.90;;;;;;;4.33;95.47;103724.91;5095203;28;20364;-66
2022/01/12 05:35:44;;;;;;;100.88;21.50;;;;;;;4.39;95.63;103734.03;5076967;28;20466;-65
2022/01/12 05:38:12;;;;;;;133.43;21.88;;;;;;;4.32;96.00;103722.44;5095068;28;20107;-66
2022/01/12 05:40:38;;;;;;;113.05;23.02;;;;;;;4.30;96.03;103719.94;5094937;28;20408;-66
2022/01/12 05:43:04;;;;;;;148.95;23.05;;;;;;;4.27;95.78;103714.97;5094940;28;20028;-66
2022/01/12 05:45:37;;;;;;;127.60;22.58;;;;;;;4.36;95.47;103711.97;5095173;28;20485;-66
2022/01/12 05:50:35;;;;;;;135.02;23.10;;;;;;;4.36;95.49;103711.16;5095043;28;20027;-66
2022/01/12 05:53:00;;;;;;;81.22;22.65;;;;;;;4.36;95.78;103711.97;5076538;28;20043;-66
2022/01/12 05:55:25;;;;;;;64.60;21.20;;;;;;;4.46;95.78;103708.06;5094800;28;20040;-66
2022/01/12 05:57:51;;;;;;;75.03;22.40;;;;;;;4.50;95.08;103713.88;5094780;28;20028;-66
2022/01/12 06:00:19;;;;;;;53.85;20.50;;;;;;;4.48;95.58;103720.78;5094485;28;20034;-66
2022/01/12 06:02:44;;;;;;;51.42;21.20;;;;;;;4.48;94.90;103734.41;5094480;28;20020;-66
2022/01/12 06:05:10;;;;;;;60.45;20.75;;;;;;;4.45;95.16;103737.13;5076470;28;20439;-66
2022/01/12 06:07:35;;;;;;;59.60;22.90;;;;;;;4.49;95.95;103738.66;5094929;28;20405;-66
2022/01/12 06:10:00;;;;;;;60.05;22.05;;;;;;;4.56;95.24;103740.91;5094320;28;20103;-66
2022/01/12 06:12:26;;;;;;;55.17;20.50;;;;;;;4.51;94.83;103739.38;5095064;28;20067;-66
2022/01/12 06:14:51;;;;;;;62.30;21.42;;;;;;;4.60;95.85;103752.66;5094903;28;20477;-66
2022/01/12 06:17:17;;;;;;;54.50;20.17;;;;;;;4.55;95.49;103746.94;5094289;28;20020;-66
2022/01/12 06:19:42;;;;;;;52.33;20.08;;;;;;;4.68;95.02;103753.94;5093665;28;20028;-66
2022/01/12 06:22:07;;;;;;;54.42;19.90;;;;;;;4.75;94.38;103763.00;5094016;28;20030;-66
2022/01/12 06:24:33;;;;;;;45.45;18.70;;;;;;;4.75;94.36;103757.88;5094893;28;20375;-67
2022/01/12 06:26:59;;;;;;;49.08;17.55;;;;;;;4.79;93.91;103768.78;5095494;28;20455;-66
2022/01/12 06:29:38;;;;;;;53.13;17.70;;;;;;;4.78;94.17;103766.31;5094229;28;20028;-66
2022/01/12 06:32:04;;;;;;;52.63;16.70;;;;;;;4.73;94.29;103774.22;5094221;28;20028;-66
2022/01/12 06:34:29;;;;;;;59.13;18.00;;;;;;;4.78;94.90;103774.00;5094101;28;20054;-67
2022/01/12 06:36:55;;;;;;;70.57;17.25;;;;;;;4.69;95.02;103782.94;5094112;28;20028;-65
2022/01/12 06:39:22;;;;;;;68.72;20.17;;;;;;;4.61;95.66;103775.66;5093607;28;20077;-66
2022/01/12 06:41:50;;;;;;;63.53;16.55;;;;;;;4.71;95.37;103781.13;5075523;28;20020;-65
2022/01/12 06:44:17;;;;;;;81.68;16.63;;;;;;;4.77;95.53;103785.97;5075714;28;20034;-67
2022/01/12 06:46:44;;;;;;;68.90;16.13;;;;;;;4.83;95.46;103780.53;5075873;28;20116;-67
2022/01/12 06:49:11;;;;;;;65.07;16.80;;;;;;;4.84;95.27;103779.66;5093907;28;20024;-65
2022/01/12 06:51:37;;;;;;;73.40;15.27;;;;;;;4.74;95.90;103791.22;5093571;28;20016;-66
2022/01/12 06:54:03;;;;;;;94.30;15.15;;;;;;;4.79;95.49;103791.84;5075307;28;20031;-66
2022/01/12 06:56:29;;;;;;;129.23;15.32;;;;;;;4.74;94.96;103796.34;5075144;28;20375;-65
2022/01/12 06:58:54;;;;;;;60.40;14.10;;;;;;;4.79;94.95;103804.66;5093419;28;20073;-66
2022/01/12 07:01:21;;;;;;;75.55;14.88;;;;;;;4.81;95.46;103812.28;5093603;28;20024;-66
2022/01/12 07:03:47;;;;;;;68.97;13.88;;;;;;;4.65;95.85;103814.75;5075331;28;20107;-66
2022/01/12 07:06:13;;;;;;;65.50;14.13;;;;;;;4.61;95.74;103826.06;5093365;28;20028;-65
2022/01/12 07:08:38;;;;;;;161.38;16.58;;;;;;;4.62;96.66;103825.97;5092897;28;20024;-71
2022/01/12 07:11:05;;;;;;;77.15;14.23;;;;;;;4.68;96.10;103829.97;5093174;28;20084;-66
2022/01/12 07:13:30;;;;;;;82.82;13.65;;;;;;;4.50;96.58;103834.22;5074155;28;20020;-66
2022/01/12 07:15:56;;;;;;;103.53;14.10;;;;;;;4.51;97.06;103835.88;5074446;28;20118;-66
2022/01/12 07:18:23;;;;;;;66.28;12.93;;;;;;;4.50;96.27;103845.31;5073985;28;20374;-65
2022/01/12 07:20:49;;;;;;;89.18;14.80;;;;;;;4.49;96.29;103845.41;5093178;28;20030;-66
2022/01/12 07:23:15;;;;;;;116.65;15.07;;;;;;;4.55;96.40;103846.84;5093533;28;20112;-66
2022/01/12 07:25:41;;;;;;;110.45;15.32;;;;;;;4.62;96.65;103853.31;5093432;28;20031;-66
2022/01/12 07:28:08;;;;;;;104.30;14.65;;;;;;;4.52;96.14;103843.50;5075319;28;20463;-67
2022/01/12 07:30:34;;;;;;;116.78;15.32;;;;;;;4.60;96.80;103847.44;5093077;28;20024;-66
2022/01/12 07:32:59;;;;;;;96.93;14.70;;;;;;;4.55;96.68;103844.28;5096744;28;20027;-66
2022/01/12 07:35:25;;;;;;;103.22;14.95;;;;;;;4.51;96.73;103844.38;5097236;28;20051;-65
2022/01/12 07:37:51;;;;;;;92.80;14.68;;;;;;;4.57;97.10;103852.69;5078409;28;20512;-67
2022/01/12 07:40:17;;;;;;;110.00;14.90;;;;;;;4.58;96.02;103859.50;5095700;28;20066;-65
2022/01/12 07:42:42;;;;;;;178.93;16.88;;;;;;;4.65;96.44;103855.72;5096434;28;20032;-65
2022/01/12 07:45:08;;;;;;;84.65;15.85;;;;;;;4.67;96.50;103870.13;5097016;28;20027;-66
2022/01/12 07:47:34;;;;;;;70.45;13.60;;;;;;;4.67;96.69;103865.00;5096995;28;20059;-67
2022/01/12 07:50:00;;;;;;;43.20;12.45;;;;;;;4.73;96.58;103874.97;5079037;28;20463;-67
2022/01/12 07:52:27;;;;;;;35.60;10.55;;;;;;;4.86;96.56;103870.09;5098041;28;20111;-67
2022/01/12 07:54:52;;;;;;;29.92;9.10;;;;;;;4.94;95.11;103869.72;5079137;28;20367;-66
2022/01/12 07:57:18;;;;;;;36.47;9.80;;;;;;;4.72;95.13;103852.00;5097032;28;20185;-66
2022/01/12 07:59:44;;;;;;;40.45;9.88;;;;;;;4.74;94.70;103862.97;5097661;28;20382;-67
2022/01/12 08:02:11;;;;;;;35.67;10.70;;;;;;;4.88;94.94;103865.69;5096740;28;20020;-66
2022/01/12 08:04:36;;;;;;;36.92;9.77;;;;;;;4.89;94.51;103858.84;5078543;28;20055;-65
2022/01/12 08:07:03;;;;;;;36.35;10.52;;;;;;;4.62;95.45;103861.81;5078397;28;20028;-66
2022/01/12 08:09:28;;;;;;;38.83;10.02;;;;;;;4.73;95.27;103861.31;5094948;28;20489;-65
2022/01/12 08:11:54;;;;;;;29.70;9.88;;;;;;;4.83;94.47;103870.22;5079037;28;20045;-65
2022/01/12 08:14:19;;;;;;;25.52;7.93;;;;;;;4.70;94.31;103876.84;5096513;28;20355;-66
2022/01/12 08:16:44;;;;;;;29.83;8.65;;;;;;;4.67;94.99;103867.56;5095310;28;20228;-66
2022/01/12 08:19:10;;;;;;;26.75;8.13;;;;;;;4.70;94.69;103867.41;5096241;28;20023;-66
2022/01/12 08:21:35;;;;;;;24.55;7.82;;;;;;;4.72;94.18;103870.75;5096346;28;20031;-67
2022/01/12 08:24:01;;;;;;;45.97;9.32;;;;;;;4.80;93.89;103887.47;5096485;28;20028;-66
2022/01/12 08:26:26;;;;;;;30.15;10.20;;;;;;;4.86;94.36;103888.03;5096290;28;20102;-66
2022/01/12 08:28:51;;;;;;;29.58;8.85;;;;;;;4.97;93.91;103900.31;5095640;28;20082;-66
2022/01/12 08:31:17;;;;;;;29.10;8.35;;;;;;;5.00;93.29;103902.72;5095158;28;20063;-66
2022/01/12 08:33:43;;;;;;;33.47;9.82;;;;;;;5.02;93.16;103907.78;5094317;28;20367;-66
2022/01/12 08:36:09;;;;;;;31.27;8.80;;;;;;;5.06;93.52;103914.41;5094110;28;20020;-66
2022/01/12 08:38:34;;;;;;;30.73;8.90;;;;;;;5.09;92.25;103917.69;5094160;28;20023;-66
2022/01/12 08:40:59;;;;;;;28.48;8.50;;;;;;;5.18;92.54;103921.53;5092631;28;20027;-66
2022/01/12 08:43:25;;;;;;;30.13;9.23;;;;;;;5.02;92.65;103923.19;5092956;28;20415;-66
2022/01/12 08:45:52;;;;;;;28.90;9.07;;;;;;;5.09;92.60;103933.06;5076365;28;20028;-66
2022/01/12 08:48:18;;;;;;;29.58;8.93;;;;;;;5.12;92.48;103942.31;5095957;28;20055;-67
2022/01/12 08:50:43;;;;;;;29.13;9.55;;;;;;;4.89;93.63;103934.00;5094296;28;20474;-66
2022/01/12 08:53:09;;;;;;;32.42;10.20;;;;;;;4.85;94.27;103939.34;5076261;28;20028;-66
2022/01/12 08:55:34;;;;;;;34.00;8.65;;;;;;;4.79;94.71;103940.47;5095254;28;20067;-66
2022/01/12 08:57:59;;;;;;;25.25;7.68;;;;;;;4.90;94.73;103943.34;5095975;28;20028;-66
2022/01/12 09:00:26;;;;;;;26.42;7.10;;;;;;;5.00;93.17;103956.56;5096184;28;20020;-66
2022/01/12 09:02:51;;;;;;;27.45;7.70;;;;;;;5.05;93.18;103944.34;5096590;28;20072;-66
2022/01/12 09:05:16;;;;;;;32.70;7.38;;;;;;;5.14;92.99;103948.22;5094954;28;20028;-67
2022/01/12 09:07:42;;;;;;;23.80;7.45;;;;;;;5.17;92.76;103956.59;5094172;28;20078;-67
2022/01/12 09:10:08;;;;;;;24.65;6.93;;;;;;;5.14;92.22;103959.28;5094829;28;20016;-67
2022/01/12 09:12:36;;;;;;;28.50;7.40;;;;;;;5.22;92.54;103961.50;5094854;28;20099;-67
2022/01/12 09:15:03;;;;;;;30.45;7.22;;;;;;;4.97;92.85;103967.78;5075655;28;20111;-69
2022/01/12 09:17:28;;;;;;;25.10;7.18;;;;;;;5.17;92.96;103974.53;5093690;28;20387;-67
2022/01/12 09:19:53;;;;;;;25.08;6.88;;;;;;;5.18;92.06;103986.47;5093057;28;20035;-67
2022/01/12 09:22:19;;;;;;;17.83;5.63;;;;;;;5.28;92.14;103983.44;5091283;28;20394;-66
2022/01/12 09:24:46;;;;;;;19.85;5.88;;;;;;;5.14;90.71;103979.81;5073874;28;20421;-65
2022/01/12 09:27:12;;;;;;;26.80;6.28;;;;;;;5.22;91.95;103974.31;5074685;28;20486;-66
2022/01/12 09:29:37;;;;;;;21.80;6.35;;;;;;;5.26;91.29;103977.56;5074643;28;20024;-66
2022/01/12 09:32:03;;;;;;;25.27;6.85;;;;;;;5.35;90.43;103977.97;5092438;28;20474;-66
2022/01/12 09:34:29;;;;;;;21.55;5.68;;;;;;;5.26;90.90;103983.50;5074731;28;20024;-66
2022/01/12 09:36:54;;;;;;;17.67;5.38;;;;;;;5.29;90.99;103985.09;5074202;28;20016;-66
2022/01/12 09:39:19;;;;;;;25.05;6.07;;;;;;;5.44;90.04;103997.22;5093184;28;20524;-66
2022/01/12 09:41:45;;;;;;;23.05;7.13;;;;;;;5.47;89.45;104001.34;5093555;28;20116;-66
2022/01/12 09:44:12;;;;;;;25.50;6.70;;;;;;;5.46;88.79;104005.63;5094197;28;20031;-66
2022/01/12 09:46:37;;;;;;;24.45;7.50;;;;;;;5.50;89.10;104004.59;5094884;28;20046;-65
2022/01/12 09:49:06;;;;;;;32.72;8.98;;;;;;;5.52;89.70;104013.03;5094832;28;20107;-66
2022/01/12 09:51:32;;;;;;;26.95;7.63;;;;;;;5.69;88.63;104013.97;5095465;28;20026;-66
2022/01/12 09:53:58;;;;;;;27.02;7.28;;;;;;;5.56;89.67;104019.69;5076609;28;20020;-66
2022/01/12 09:56:27;;;;;;;30.52;8.38;;;;;;;5.59;88.77;104018.72;5093514;28;20486;-66
2022/01/12 09:58:54;;;;;;;36.17;7.93;;;;;;;5.56;89.43;104012.00;5094629;28;20024;-67
2022/01/12 10:01:49;;;;;;;25.90;7.45;;;;;;;5.78;89.09;104011.78;5094505;28;20102;-66
2022/01/12 10:04:17;;;;;;;22.63;6.35;;;;;;;5.85;89.48;104008.00;5063631;28;20036;-66
2022/01/12 10:06:49;;;;;;;22.60;6.63;;;;;;;6.13;88.16;104000.66;5094561;28;20465;-66
2022/01/12 10:09:15;;;;;;;17.65;5.72;;;;;;;6.38;86.37;103989.94;5094531;28;20103;-66
2022/01/12 10:11:50;;;;;;;19.55;5.55;;;;;;;6.56;83.55;103976.13;5094532;28;20441;-66
2022/01/12 10:14:16;;;;;;;20.88;5.90;;;;;;;6.37;85.06;103989.13;5076267;28;20028;-66
2022/01/12 10:16:58;;;;;;;23.05;6.78;;;;;;;6.20;85.41;103995.13;5071547;28;20390;-49
2022/01/12 10:19:29;;;;;;;20.55;6.93;;;;;;;5.81;86.49;104000.50;5069564;28;20033;-48
2022/01/12 10:21:55;;;;;;;20.52;6.72;;;;;;;5.88;89.51;104007.84;5070712;28;20029;-49
2022/01/12 10:24:22;;;;;;;21.42;5.90;;;;;;;5.92;88.44;103997.41;5070691;28;20479;-47
2022/01/12 10:26:48;;;;;;;22.35;6.05;;;;;;;5.93;87.66;103997.38;5069289;28;20494;-48
2022/01/12 10:29:16;;;;;;;25.75;6.78;;;;;;;6.21;86.46;103999.34;5070518;28;20024;-49
2022/01/12 10:32:02;;;;;;;21.00;6.13;;;;;;;6.63;83.55;103992.88;5070536;28;20116;-48
2022/01/12 10:34:42;;;;;;;23.38;7.30;;;;;;;6.82;84.21;103992.72;5070444;28;20095;-49
2022/01/12 10:37:13;;;;;;;25.05;6.60;;;;;;;6.97;82.99;103988.47;5070491;28;20048;-47
2022/01/12 10:39:41;;;;;;;18.88;6.82;;;;;;;6.43;86.05;103998.25;5070416;28;20027;-49
2022/01/12 10:42:12;;;;;;;24.73;6.45;;;;;;;6.49;86.13;104008.19;5070225;28;20028;-48
2022/01/12 10:44:43;;;;;;;28.35;7.97;;;;;;;6.64;84.99;104012.50;5069934;28;20032;-46
2022/01/12 10:47:16;;;;;;;20.02;6.53;;;;;;;6.78;85.91;104010.03;5069563;28;20035;-47
2022/01/12 10:50:04;;;;;;;24.25;7.57;;;;;;;6.21;87.14;104006.22;5068944;28;20522;-47
2022/01/12 10:52:34;;;;;;;22.38;6.63;;;;;;;6.10;87.73;104017.06;5069800;28;20090;-48
2022/01/12 10:55:01;;;;;;;19.13;6.70;;;;;;;5.87;89.03;104010.50;5070774;28;20021;-49
2022/01/12 10:57:29;;;;;;;18.25;6.53;;;;;;;6.21;87.80;104011.34;5070189;28;20447;-49
2022/01/12 11:00:19;;;;;;;20.75;6.82;;;;;;;6.21;88.10;104014.75;5070132;28;20021;-48
2022/01/12 11:02:49;;;;;;;21.30;6.80;;;;;;;6.14;87.99;104013.41;5069845;28;20048;-48
2022/01/12 11:05:16;;;;;;;19.98;6.85;;;;;;;6.28;87.97;104002.44;5068578;28;20028;-48
2022/01/12 11:07:42;;;;;;;24.77;6.88;;;;;;;6.77;86.68;103992.13;5069978;28;20033;-48
2022/01/12 11:10:09;;;;;;;22.48;7.38;;;;;;;6.69;85.26;103994.28;5070141;28;20027;-49
2022/01/12 11:12:35;;;;;;;27.33;7.50;;;;;;;6.30;87.62;104010.88;5069601;28;20025;-47
2022/01/12 11:15:12;;;;;;;24.17;7.68;;;;;;;6.18;86.73;103994.38;5051482;28;20052;-48
2022/01/12 11:17:39;;;;;;;28.17;7.32;;;;;;;6.45;88.26;103993.84;5068287;28;20074;-51
2022/01/12 11:20:21;;;;;;;22.33;7.57;;;;;;;6.64;87.57;103986.81;5068019;28;20016;-49
2022/01/12 11:23:09;;;;;;;23.15;7.18;;;;;;;6.36;88.46;103991.75;5069752;28;20031;-49
2022/01/12 11:25:36;;;;;;;22.48;7.80;;;;;;;6.05;89.57;103995.91;5069891;28;20033;-49
2022/01/12 11:28:08;;;;;;;26.33;7.28;;;;;;;6.00;89.30;103997.88;5056896;28;20035;-48
2022/01/12 11:30:35;;;;;;;27.52;7.90;;;;;;;6.04;88.83;103997.66;5055953;28;20114;-49
2022/01/12 11:33:06;;;;;;;25.73;8.27;;;;;;;6.12;88.47;103992.13;5056891;28;20024;-49
2022/01/12 11:35:36;;;;;;;29.90;8.02;;;;;;;5.94;88.92;103982.81;5055913;28;20017;-48
2022/01/12 11:38:02;;;;;;;27.98;8.00;;;;;;;6.06;89.40;103990.69;5055869;28;20025;-48
2022/01/12 11:40:34;;;;;;;25.55;7.97;;;;;;;6.09;89.20;103995.66;5055899;28;20040;-48
2022/01/12 11:43:00;;;;;;;28.83;8.65;;;;;;;5.88;89.68;103997.56;5054465;28;20025;-49
2022/01/12 11:45:25;;;;;;;27.67;8.65;;;;;;;5.84;90.18;103990.94;5055769;28;20353;-47
2022/01/12 11:47:51;;;;;;;26.75;8.23;;;;;;;5.87;89.92;103990.78;5055169;28;20031;-48
2022/01/12 11:50:17;;;;;;;28.88;7.95;;;;;;;6.07;90.49;103986.38;5055967;28;20051;-49
2022/01/12 11:52:43;;;;;;;30.27;8.70;;;;;;;5.96;89.33;103981.00;5055612;28;20462;-47
2022/01/12 11:55:14;;;;;;;24.10;8.60;;;;;;;5.73;90.26;103982.94;5054665;28;20471;-49
2022/01/12 11:57:45;;;;;;;24.70;8.93;;;;;;;5.91;90.57;103977.78;5055428;28;20036;-49
2022/01/12 12:00:20;;;;;;;32.67;9.23;;;;;;;5.67;90.59;103978.13;5054366;28;20029;-49
2022/01/12 12:02:51;;;;;;;26.05;8.57;;;;;;;5.78;90.82;103975.00;5055443;28;20031;-47
2022/01/12 12:05:18;;;;;;;34.95;11.57;;;;;;;5.89;89.82;103959.88;5054954;28;20041;-47
2022/01/12 12:07:49;;;;;;;25.38;8.80;;;;;;;5.92;89.96;103966.59;5055015;28;20029;-49
2022/01/12 12:10:20;;;;;;;30.25;9.43;;;;;;;5.88;90.24;103965.94;5055321;28;20501;-49
2022/01/12 12:12:47;;;;;;;33.63;10.93;;;;;;;5.77;90.26;103961.34;5053501;28;20021;-47
2022/01/12 12:15:13;;;;;;;33.88;11.05;;;;;;;5.80;90.23;103958.63;5054191;28;20092;-46
2022/01/12 12:17:41;;;;;;;28.20;10.88;;;;;;;5.91;90.06;103952.94;5054744;28;20486;-47
2022/01/12 12:20:09;;;;;;;31.13;10.63;;;;;;;5.72;91.03;103952.22;5054881;28;20407;-47
2022/01/12 12:22:40;;;;;;;34.38;11.40;;;;;;;5.87;90.56;103947.16;5053767;28;20079;-49
2022/01/12 12:25:15;;;;;;;34.97;11.63;;;;;;;5.68;90.94;103958.41;5055608;28;20455;-48
2022/01/12 12:27:44;;;;;;;37.08;11.95;;;;;;;5.78;90.43;103950.19;5054913;28;20049;-48
2022/01/12 12:30:15;;;;;;;43.20;12.82;;;;;;;5.85;89.80;103943.00;5054459;28;20028;-49
2022/01/12 12:32:46;;;;;;;51.55;13.20;;;;;;;5.89;90.78;103947.88;5053947;28;20083;-47
2022/01/12 12:35:19;;;;;;;34.80;12.75;;;;;;;5.85;90.78;103948.13;5053105;28;20383;-48